Time;durP1;ratioP1;P1;durP2;ratioP2;P2;SDS_P1;SDS_P2;PMS_P1;PMS_P2;Temp;Humidity;BMP_temperature;BMP_pressure;BME280_temperature;BME280_humidity;BME280_pressure;Samples;Min_cycle;Max_cycle;Signal;HPM_P1;HPM_P2
2023/12/15 00:03:46;;;;;;;9.83;5.20;;;;;;;17.93;59.59;97757.41;10410771;28;20037;-30
2023/12/15 00:08:47;;;;;;;7.57;5.17;;;;;;;17.96;59.41;97765.06;10408820;28;20044;-30
2023/12/15 00:13:47;;;;;;;11.23;6.07;;;;;;;17.93;59.66;97757.41;10401725;28;20148;-29
2023/12/15 00:18:48;;;;;;;7.93;5.20;;;;;;;17.98;59.25;97768.50;10410059;28;20750;-31
2023/12/15 00:23:48;;;;;;;6.60;4.83;;;;;;;17.93;59.61;97768.38;10406819;28;20036;-30
2023/12/15 00:28:48;;;;;;;8.27;4.47;;;;;;;17.94;59.28;97766.72;10399683;28;20296;-30
2023/12/15 00:33:49;;;;;;;7.93;4.93;;;;;;;17.98;59.31;97771.03;10409654;28;20033;-29
2023/12/15 00:38:49;;;;;;;10.03;5.23;;;;;;;17.96;59.47;97783.66;10407510;28;20044;-30
2023/12/15 00:43:49;;;;;;;7.93;4.30;;;;;;;18.00;58.89;97784.56;10407938;28;20039;-30
2023/12/15 00:48:50;;;;;;;6.83;4.47;;;;;;;18.02;58.74;97793.06;10406195;28;20456;-30
2023/12/15 00:53:50;;;;;;;5.83;3.93;;;;;;;18.00;59.16;97814.97;10401865;28;20037;-31
2023/12/15 00:58:50;;;;;;;7.00;4.63;;;;;;;18.00;59.15;97820.06;10401825;28;20091;-30
2023/12/15 01:03:51;;;;;;;5.40;4.23;;;;;;;17.99;59.19;97823.41;10408761;28;20033;-30
2023/12/15 01:08:51;;;;;;;9.17;4.00;;;;;;;18.00;58.97;97825.97;10406299;28;20033;-31
2023/12/15 01:13:51;;;;;;;6.07;4.73;;;;;;;17.94;59.42;97830.94;10406582;28;20434;-31
2023/12/15 01:18:52;;;;;;;9.53;4.67;;;;;;;17.93;59.30;97828.34;10400527;28;20033;-30
2023/12/15 01:23:52;;;;;;;6.20;3.87;;;;;;;17.94;59.66;97840.19;10407652;28;20033;-30
2023/12/15 01:28:52;;;;;;;7.40;4.13;;;;;;;17.92;59.28;97842.69;10405212;28;20892;-30
2023/12/15 01:33:53;;;;;;;7.67;3.77;;;;;;;17.96;59.23;97848.66;10404733;28;20029;-30
2023/12/15 01:38:53;;;;;;;6.82;3.47;;;;;;;17.91;59.45;97852.81;10407314;28;20026;-30
2023/12/15 01:43:54;;;;;;;5.93;3.90;;;;;;;17.91;59.59;97860.41;10404691;28;20033;-30
2023/12/15 01:48:54;;;;;;;5.60;4.00;;;;;;;17.93;59.43;97868.91;10405826;28;20040;-30
2023/12/15 01:53:55;;;;;;;6.75;4.00;;;;;;;17.90;59.49;97871.38;10402174;28;20052;-30
2023/12/15 01:58:55;;;;;;;8.73;4.33;;;;;;;17.89;59.83;97877.25;10399501;28;20028;-31
2023/12/15 02:03:56;;;;;;;6.18;3.78;;;;;;;17.83;59.95;97857.72;10402750;28;20083;-30
2023/12/15 02:08:56;;;;;;;6.57;4.53;;;;;;;17.88;60.05;97873.00;10405406;28;20489;-29
2023/12/15 02:13:56;;;;;;;8.90;4.63;;;;;;;17.88;60.04;97885.66;10402645;28;20298;-30
2023/12/15 02:18:57;;;;;;;6.20;3.70;;;;;;;17.84;60.11;97894.88;10405615;28;20029;-30
2023/12/15 02:23:57;;;;;;;7.05;3.97;;;;;;;17.84;60.30;97896.56;10401929;28;20033;-30
2023/12/15 02:28:58;;;;;;;5.20;3.60;;;;;;;17.84;60.18;97899.09;10403014;28;20036;-30
2023/12/15 02:33:58;;;;;;;7.77;3.70;;;;;;;17.84;60.26;97909.25;10397123;28;20026;-30
2023/12/15 02:38:59;;;;;;;7.37;3.60;;;;;;;17.85;60.36;97921.09;10400527;28;20037;-30
2023/12/15 02:43:59;;;;;;;5.35;3.20;;;;;;;17.84;60.39;97915.16;10397678;28;20030;-30
2023/12/15 02:49:00;;;;;;;5.37;3.37;;;;;;;17.86;60.29;97927.84;10403646;28;20029;-29
2023/12/15 02:54:01;;;;;;;9.40;3.35;;;;;;;17.82;60.10;97928.63;10404212;28;20026;-30
2023/12/15 02:59:03;;;;;;;5.47;3.38;;;;;;;17.85;60.30;97941.34;10383916;28;20499;-30
2023/12/15 03:04:03;;;;;;;7.68;3.35;;;;;;;17.84;60.03;97945.53;10394760;28;20044;-30
2023/12/15 03:09:03;;;;;;;8.70;3.57;;;;;;;17.84;60.32;97944.72;10392022;28;20032;-30
2023/12/15 03:14:04;;;;;;;5.77;3.53;;;;;;;17.85;60.45;97951.47;10388476;28;20052;-31
2023/12/15 03:19:04;;;;;;;4.47;3.00;;;;;;;17.85;60.13;97956.56;10388505;28;20051;-30
2023/12/15 03:24:05;;;;;;;5.93;3.33;;;;;;;17.86;60.08;97958.25;10407810;28;20726;-30
2023/12/15 03:29:05;;;;;;;4.30;3.08;;;;;;;17.85;60.12;97957.41;10391051;28;20503;-29
2023/12/15 03:34:05;;;;;;;4.50;3.20;;;;;;;17.87;59.90;97955.78;10389797;28;20036;-30
2023/12/15 03:39:07;;;;;;;5.20;3.33;;;;;;;17.88;60.02;97961.66;10386984;28;20033;-30
2023/12/15 03:44:07;;;;;;;4.05;2.83;;;;;;;17.87;59.89;97970.97;10389207;28;20034;-30
2023/12/15 03:49:07;;;;;;;4.77;2.53;;;;;;;17.89;60.04;97961.72;10381523;28;20042;-30
2023/12/15 03:54:08;;;;;;;5.43;2.70;;;;;;;17.86;60.01;97969.25;10389382;28;20292;-31
2023/12/15 03:59:08;;;;;;;5.05;3.40;;;;;;;17.90;60.08;97981.16;10390753;28;20044;-30
2023/12/15 04:04:09;;;;;;;4.90;3.00;;;;;;;17.89;60.03;97986.19;10391209;28;20045;-30
2023/12/15 04:09:09;;;;;;;6.03;3.07;;;;;;;17.89;60.05;97996.31;10395093;28;20033;-30
2023/12/15 04:14:10;;;;;;;3.88;2.47;;;;;;;17.87;60.11;98001.38;10391141;28;20288;-30
2023/12/15 04:19:10;;;;;;;10.67;3.00;;;;;;;17.89;60.07;98003.91;10388764;28;20040;-30
2023/12/15 04:24:10;;;;;;;4.50;2.90;;;;;;;17.89;59.96;98006.44;10388496;28;20095;-30
2023/12/15 04:29:11;;;;;;;4.57;2.47;;;;;;;17.90;59.98;98008.19;10387430;28;20052;-30
2023/12/15 04:34:11;;;;;;;5.00;2.90;;;;;;;17.87;60.09;98015.69;10388317;28;20033;-30
2023/12/15 04:39:12;;;;;;;3.93;2.50;;;;;;;17.90;60.11;98015.78;10382519;28;20037;-30
2023/12/15 04:44:12;;;;;;;3.00;2.17;;;;;;;17.93;59.88;98015.84;10396030;28;20068;-30
2023/12/15 04:49:12;;;;;;;4.53;2.50;;;;;;;17.91;59.81;98017.50;10396163;28;20103;-30
2023/12/15 04:54:13;;;;;;;4.23;2.90;;;;;;;17.93;59.70;98026.00;10399165;28;20047;-31
2023/12/15 04:59:14;;;;;;;4.13;2.50;;;;;;;17.94;58.79;98018.44;10399337;28;20082;-30
2023/12/15 05:04:14;;;;;;;5.70;2.60;;;;;;;17.95;58.77;98021.81;10404520;28;20095;-31
2023/12/15 05:09:14;;;;;;;3.38;2.45;;;;;;;17.97;58.63;98031.16;10399393;28;20041;-31
2023/12/15 05:14:15;;;;;;;3.20;2.53;;;;;;;17.96;58.95;98044.66;10379807;28;20053;-29
2023/12/15 05:19:15;;;;;;;5.27;2.97;;;;;;;17.99;58.70;98056.53;10394232;28;20064;-30
2023/12/15 05:24:16;;;;;;;4.77;2.40;;;;;;;17.97;58.61;98059.03;10387142;28;20075;-30
2023/12/15 05:29:16;;;;;;;4.73;2.03;;;;;;;17.99;58.63;98061.63;10395371;28;20357;-30
2023/12/15 05:34:16;;;;;;;3.70;2.13;;;;;;;17.98;58.90;98078.47;10390007;28;20560;-30
2023/12/15 05:39:17;;;;;;;4.17;2.43;;;;;;;18.02;58.91;98079.41;10383814;28;20403;-30
2023/12/15 05:44:17;;;;;;;3.47;2.50;;;;;;;18.07;57.99;98090.53;10396947;28;20521;-30
2023/12/15 05:49:17;;;;;;;2.93;2.07;;;;;;;18.04;57.50;98082.81;10385851;28;20083;-30
2023/12/15 05:54:18;;;;;;;7.37;2.60;;;;;;;18.04;57.92;98106.50;10387314;28;20447;-30
2023/12/15 05:59:18;;;;;;;6.23;2.80;;;;;;;18.06;58.31;98125.13;10403588;28;20455;-30
2023/12/15 06:04:18;;;;;;;5.90;2.37;;;;;;;18.13;57.87;98126.13;10385252;28;20354;-30
2023/12/15 06:09:19;;;;;;;5.83;3.40;;;;;;;18.13;59.10;98136.25;10394857;28;20052;-31
2023/12/15 06:14:21;;;;;;;5.03;2.80;;;;;;;18.13;59.46;98141.34;10401159;28;20087;-30
2023/12/15 06:19:23;;;;;;;9.13;1.85;;;;;;;18.15;57.67;98160.84;10401154;28;20029;-31
2023/12/15 06:24:23;;;;;;;5.03;2.80;;;;;;;18.14;59.49;98163.31;10401996;28;20500;-30
2023/12/15 06:29:24;;;;;;;4.83;3.37;;;;;;;17.93;55.31;98167.88;10400659;28;20044;-32
2023/12/15 06:34:24;;;;;;;6.67;3.10;;;;;;;17.86;55.73;98171.06;10400452;28;20461;-30
2023/12/15 06:39:24;;;;;;;5.63;2.40;;;;;;;17.90;55.77;98185.56;10401520;28;20052;-30
2023/12/15 06:44:25;;;;;;;3.83;2.70;;;;;;;17.90;55.74;98183.03;10390380;28;20033;-30
2023/12/15 06:49:32;;;;;;;6.43;2.72;;;;;;;17.88;55.78;98194.75;10402211;28;20630;-29
2023/12/15 06:54:32;;;;;;;6.43;2.58;;;;;;;17.85;55.68;98210.78;10397486;28;20030;-30
2023/12/15 06:59:33;;;;;;;4.63;2.28;;;;;;;17.85;55.44;98222.56;10413366;28;20040;-31
2023/12/15 07:04:33;;;;;;;8.27;2.50;;;;;;;17.80;55.59;98231.72;10409984;28;20041;-29
2023/12/15 07:09:33;;;;;;;3.37;1.93;;;;;;;17.93;56.21;98233.75;10407233;28;20034;-30
2023/12/15 07:14:34;;;;;;;4.93;2.50;;;;;;;17.90;56.55;98228.63;10409402;28;20068;-32
2023/12/15 07:19:34;;;;;;;12.50;2.80;;;;;;;17.82;57.07;98247.84;10408124;28;20406;-29
2023/12/15 07:24:34;;;;;;;7.83;2.80;;;;;;;17.75;57.34;98235.81;10407170;28;20400;-29
2023/12/15 07:29:35;;;;;;;6.20;2.23;;;;;;;17.80;57.45;98257.03;10408836;28;20300;-30
2023/12/15 07:34:35;;;;;;;6.10;3.60;;;;;;;17.79;57.77;98256.22;10408887;28;20037;-30
2023/12/15 07:39:35;;;;;;;3.43;2.00;;;;;;;17.81;58.31;98254.56;10406197;28;20029;-30
2023/12/15 07:44:36;;;;;;;7.47;2.20;;;;;;;17.89;57.29;98258.16;10397817;28;20033;-30
2023/12/15 07:49:36;;;;;;;4.97;2.13;;;;;;;17.92;57.71;98262.47;10409944;28;20116;-30
2023/12/15 07:54:37;;;;;;;6.28;2.15;;;;;;;17.90;58.21;98270.00;10407184;28;20037;-30
2023/12/15 07:59:37;;;;;;;5.90;2.33;;;;;;;17.90;57.83;98284.38;10410166;28;20033;-30
2023/12/15 08:04:37;;;;;;;5.60;2.53;;;;;;;17.89;58.45;98291.09;10406558;28;20510;-30
2023/12/15 08:09:38;;;;;;;4.37;2.23;;;;;;;17.89;57.69;98297.84;10404161;28;20296;-30
2023/12/15 08:14:39;;;;;;;2.97;2.30;;;;;;;17.86;58.16;98303.69;10407664;28;20037;-30
2023/12/15 08:19:40;;;;;;;7.50;2.42;;;;;;;17.86;58.17;98302.81;10404269;28;20037;-30
2023/12/15 08:24:42;;;;;;;2.97;2.53;;;;;;;17.89;57.76;98310.50;10404283;28;20084;-32
2023/12/15 08:29:43;;;;;;;7.75;3.65;;;;;;;17.87;59.89;98313.00;10405943;28;20084;-29
2023/12/15 08:34:43;;;;;;;13.30;4.30;;;;;;;17.72;57.67;98315.13;10403241;28;20100;-30
2023/12/15 08:39:44;;;;;;;17.77;5.33;;;;;;;17.78;56.61;98322.03;10401454;28;20032;-31
2023/12/15 08:44:44;;;;;;;11.57;3.77;;;;;;;17.85;56.47;98341.66;10396459;28;20359;-30
2023/12/15 08:49:44;;;;;;;10.93;4.55;;;;;;;17.86;57.38;98353.50;10406985;28;20030;-30
2023/12/15 08:54:47;;;;;;;9.67;3.17;;;;;;;17.88;57.71;98351.88;10403715;28;20052;-30
2023/12/15 08:59:48;;;;;;;10.90;3.42;;;;;;;17.89;57.52;98362.06;10408617;28;20026;-30
2023/12/15 09:04:48;;;;;;;7.37;3.60;;;;;;;17.87;57.85;98357.75;10407278;28;20042;-30
2023/12/15 09:09:48;;;;;;;9.00;3.33;;;;;;;17.86;57.73;98359.44;10400588;28;20538;-29
2023/12/15 09:14:50;;;;;;;9.60;2.90;;;;;;;17.81;57.80;98357.56;10406622;28;20040;-33
2023/12/15 09:19:50;;;;;;;7.85;2.88;;;;;;;17.84;57.98;98372.88;10405121;28;20037;-30
2023/12/15 09:24:51;;;;;;;8.75;3.63;;;;;;;17.82;57.45;98366.91;10398608;28;20038;-30
2023/12/15 09:29:52;;;;;;;5.78;2.85;;;;;;;17.85;57.93;98356.84;10405127;28;20046;-30
2023/12/15 09:34:52;;;;;;;9.17;3.60;;;;;;;17.82;58.05;98361.84;10405457;28;20041;-30
2023/12/15 09:39:53;;;;;;;10.23;3.17;;;;;;;17.79;58.14;98366.81;10396877;28;20034;-30
2023/12/15 09:44:53;;;;;;;6.63;2.28;;;;;;;17.80;58.05;98383.72;10399832;28;20478;-30
2023/12/15 09:50:01;;;;;;;9.53;2.40;;;;;;;17.79;58.07;98385.41;10402095;28;20080;-30
2023/12/15 09:55:03;;;;;;;5.75;2.28;;;;;;;17.80;57.46;98386.25;10403758;28;20511;-30
2023/12/15 10:00:05;;;;;;;6.53;1.70;;;;;;;17.88;57.38;98382.28;10405818;28;20025;-30
2023/12/15 10:05:13;;;;;;;5.43;2.38;;;;;;;17.93;56.79;98371.44;10402928;28;20033;-31
2023/12/15 10:10:15;;;;;;;3.38;1.77;;;;;;;17.96;56.77;98375.75;10403492;28;20034;-30
2023/12/15 10:15:15;;;;;;;6.82;2.10;;;;;;;17.94;56.66;98382.44;10405658;28;20526;-30
2023/12/15 10:20:16;;;;;;;6.43;1.92;;;;;;;17.70;57.47;98367.41;10396316;28;20047;-30
2023/12/15 10:25:21;;;;;;;10.48;2.15;;;;;;;17.82;56.57;98392.25;10403358;28;20033;-30
2023/12/15 10:30:21;;;;;;;5.95;1.75;;;;;;;17.85;56.92;98402.47;10398773;28;20033;-30
2023/12/15 10:35:22;;;;;;;5.80;2.07;;;;;;;17.82;56.96;98404.91;10397568;28;20089;-30
2023/12/15 10:40:24;;;;;;;7.25;2.72;;;;;;;17.79;56.95;98398.09;10402949;28;20037;-30
2023/12/15 10:45:26;;;;;;;4.97;2.22;;;;;;;17.67;56.09;98396.88;10404492;28;20037;-30
2023/12/15 10:50:28;;;;;;;4.97;1.92;;;;;;;17.65;57.34;98393.44;10398132;28;20040;-29
2023/12/15 10:55:29;;;;;;;11.20;2.95;;;;;;;17.72;56.12;98401.25;10402657;28;20725;-30
2023/12/15 11:00:31;;;;;;;4.97;2.03;;;;;;;17.81;56.60;98423.44;10402355;28;20048;-30
2023/12/15 11:05:35;;;;;;;8.98;2.35;;;;;;;17.76;57.31;98422.47;10401880;28;20116;-30
2023/12/15 11:10:35;;;;;;;15.25;3.45;;;;;;;17.83;58.03;98419.31;10401120;28;20188;-29
2023/12/15 11:15:36;;;;;;;17.63;3.42;;;;;;;17.83;58.21;98411.69;10404359;28;20037;-29
2023/12/15 11:20:40;;;;;;;30.30;4.03;;;;;;;17.92;59.03;98425.47;10392585;28;20128;-29
2023/12/15 11:25:46;;;;;;;7.80;1.98;;;;;;;17.96;59.59;98426.44;10401462;28;20033;-31
2023/12/15 11:30:48;;;;;;;8.50;2.33;;;;;;;18.00;58.25;98424.03;10403423;28;20507;-29
2023/12/15 11:35:58;;;;;;;6.30;2.13;;;;;;;17.99;57.58;98416.41;10400122;28;20492;-30
2023/12/15 11:41:00;;;;;;;9.48;2.40;;;;;;;18.03;57.42;98423.25;10407019;28;20087;-30
2023/12/15 11:46:00;;;;;;;4.05;2.22;;;;;;;18.02;57.40;98417.34;10411905;28;20116;-32
2023/12/15 11:51:01;;;;;;;6.75;1.88;;;;;;;18.01;57.25;98413.06;10411747;28;20025;-30
2023/12/15 11:56:04;;;;;;;6.50;2.38;;;;;;;17.90;56.74;98406.00;10410877;28;20487;-30
2023/12/15 12:01:05;;;;;;;4.72;2.00;;;;;;;18.00;56.65;98424.03;10413518;28;20476;-30
2023/12/15 12:06:08;;;;;;;5.00;2.13;;;;;;;18.02;56.86;98429.16;10412635;28;20087;-30
2023/12/15 12:11:08;;;;;;;3.70;2.05;;;;;;;18.01;56.89;98425.75;10408428;28;20033;-31
2023/12/15 12:16:09;;;;;;;3.47;1.80;;;;;;;18.00;56.39;98423.19;10410500;28;20029;-29
2023/12/15 12:21:10;;;;;;;3.40;2.37;;;;;;;18.04;56.51;98424.97;10410370;28;20033;-30
2023/12/15 12:26:12;;;;;;;3.45;2.33;;;;;;;18.03;56.42;98430.88;10409798;28;20041;-30
2023/12/15 12:31:14;;;;;;;6.38;2.33;;;;;;;18.06;56.24;98428.41;10412802;28;20495;-30
2023/12/15 12:36:16;;;;;;;5.70;2.58;;;;;;;18.09;55.92;98431.88;10402420;28;20061;-29
2023/12/15 12:41:17;;;;;;;10.38;3.45;;;;;;;18.11;56.10;98434.47;10405777;28;20120;-30
2023/12/15 12:46:17;;;;;;;7.57;3.70;;;;;;;18.15;55.82;98434.59;10409175;28;20517;-30
2023/12/15 12:51:17;;;;;;;11.13;4.27;;;;;;;18.16;56.04;98431.25;10403810;28;20033;-30
2023/12/15 12:56:20;;;;;;;5.27;3.07;;;;;;;18.14;55.63;98427.81;10405115;28;20526;-30
2023/12/15 13:01:28;;;;;;;7.97;3.33;;;;;;;18.15;55.73;98423.63;10405567;28;20083;-30
2023/12/15 13:06:29;;;;;;;6.90;3.30;;;;;;;18.12;55.92;98421.00;10400418;28;20095;-30
2023/12/15 13:11:29;;;;;;;4.65;3.00;;;;;;;18.09;55.41;98413.31;10400531;28;20088;-30
2023/12/15 13:16:29;;;;;;;9.13;3.08;;;;;;;18.14;55.79;98421.88;10406733;28;20128;-30
2023/12/15 13:21:30;;;;;;;9.90;3.67;;;;;;;18.07;55.39;98418.31;10407598;28;20029;-30
2023/12/15 13:26:30;;;;;;;7.13;3.47;;;;;;;18.13;55.35;98437.91;10402993;28;20037;-31
2023/12/15 13:31:31;;;;;;;9.18;3.22;;;;;;;18.09;55.56;98448.78;10407109;28;20087;-30
2023/12/15 13:36:31;;;;;;;44.73;5.07;;;;;;;18.05;57.16;98457.97;10401750;28;20042;-31
2023/12/15 13:41:31;;;;;;;9.73;3.47;;;;;;;18.06;57.81;98457.16;10402562;28;20039;-30
2023/12/15 13:46:32;;;;;;;11.70;3.67;;;;;;;18.03;58.21;98452.00;10406803;28;20056;-30
2023/12/15 13:51:32;;;;;;;9.60;3.30;;;;;;;17.99;58.71;98454.41;10402353;28;20660;-30
2023/12/15 13:56:33;;;;;;;8.70;2.33;;;;;;;18.05;59.40;98454.56;10402246;28;20043;-30
2023/12/15 14:01:33;;;;;;;7.60;2.63;;;;;;;18.06;59.75;98459.69;10405849;28;20084;-31
2023/12/15 14:06:34;;;;;;;5.65;2.30;;;;;;;18.07;59.86;98455.50;10398206;28;20037;-29
2023/12/15 14:11:34;;;;;;;5.95;2.53;;;;;;;18.05;60.06;98464.72;10401006;28;20049;-30
2023/12/15 14:16:35;;;;;;;6.57;2.30;;;;;;;18.03;59.67;98481.56;10405902;28;20029;-30
2023/12/15 14:21:35;;;;;;;9.27;2.25;;;;;;;18.08;60.18;98492.69;10403841;28;20284;-31
2023/12/15 14:26:36;;;;;;;5.77;2.27;;;;;;;18.07;60.50;98498.59;10400619;28;20048;-30
2023/12/15 14:31:36;;;;;;;8.63;3.53;;;;;;;18.07;60.79;98508.72;10404944;28;20334;-30
2023/12/15 14:36:37;;;;;;;3.77;2.10;;;;;;;18.04;60.12;98513.69;10395481;28;20649;-30
2023/12/15 14:41:38;;;;;;;4.55;2.70;;;;;;;18.02;60.15;98513.66;10393138;28;20183;-30
2023/12/15 14:46:38;;;;;;;5.10;2.13;;;;;;;18.04;60.09;98528.91;10404736;28;20116;-30
2023/12/15 14:51:39;;;;;;;4.07;2.80;;;;;;;17.95;59.37;98521.88;10401618;28;20701;-30
2023/12/15 14:56:39;;;;;;;6.78;2.85;;;;;;;17.98;59.54;98532.09;10400635;28;20307;-30
2023/12/15 15:01:40;;;;;;;5.07;2.90;;;;;;;17.97;59.87;98542.19;10397079;28;20033;-30
2023/12/15 15:06:40;;;;;;;3.93;2.10;;;;;;;17.91;59.56;98536.94;10393867;28;20060;-30
2023/12/15 15:11:41;;;;;;;4.50;2.20;;;;;;;17.89;59.59;98519.16;10395361;28;20292;-30
2023/12/15 15:16:41;;;;;;;2.70;1.73;;;;;;;17.93;59.78;98546.28;10407411;28;20033;-29
2023/12/15 15:21:42;;;;;;;3.03;1.92;;;;;;;17.88;59.68;98536.84;10410248;28;20033;-30
2023/12/15 15:26:42;;;;;;;13.33;2.53;;;;;;;17.93;60.22;98553.06;10406489;28;20102;-29
2023/12/15 15:31:43;;;;;;;4.47;2.07;;;;;;;17.92;59.04;98546.28;10410746;28;20049;-30
2023/12/15 15:36:43;;;;;;;3.50;1.92;;;;;;;17.92;59.59;98558.94;10404524;28;20476;-30
2023/12/15 15:41:44;;;;;;;4.93;2.15;;;;;;;17.97;60.56;98554.84;10405855;28;20037;-29
2023/12/15 15:46:45;;;;;;;3.35;2.33;;;;;;;18.03;60.77;98545.78;10411381;28;20041;-29
2023/12/15 15:51:45;;;;;;;2.83;2.05;;;;;;;18.12;59.75;98546.06;10406567;28;20116;-30
2023/12/15 15:56:46;;;;;;;6.57;1.83;;;;;;;18.14;59.63;98549.50;10402024;28;20037;-30
2023/12/15 16:01:46;;;;;;;2.57;1.70;;;;;;;18.14;60.21;98548.63;10409820;28;20040;-30
2023/12/15 16:06:46;;;;;;;3.60;1.90;;;;;;;18.10;59.72;98559.50;10406666;28;20292;-30
2023/12/15 16:11:47;;;;;;;4.17;2.00;;;;;;;18.05;59.51;98549.22;10404346;28;20307;-31
2023/12/15 16:16:47;;;;;;;6.10;1.87;;;;;;;18.02;59.40;98566.00;10407306;28;20029;-30
2023/12/15 16:21:48;;;;;;;3.33;2.07;;;;;;;18.06;58.89;98570.34;10403882;28;20025;-30
2023/12/15 16:26:49;;;;;;;6.22;1.90;;;;;;;18.06;59.50;98565.28;10403898;28;20066;-30
2023/12/15 16:31:51;;;;;;;4.03;1.80;;;;;;;18.06;58.75;98590.63;10409272;28;20041;-31
2023/12/15 16:36:53;;;;;;;4.75;1.80;;;;;;;18.04;58.52;98589.72;10402826;28;20034;-30
2023/12/15 16:41:53;;;;;;;4.22;1.90;;;;;;;18.06;58.14;98598.22;10402921;28;20060;-30
2023/12/15 16:46:53;;;;;;;6.53;2.63;;;;;;;17.92;58.65;98618.06;10408334;28;20045;-30
2023/12/15 16:51:55;;;;;;;11.23;4.07;;;;;;;18.03;58.19;98624.38;10406500;28;20120;-30
2023/12/15 16:56:55;;;;;;;5.47;3.90;;;;;;;18.03;58.54;98633.63;10404796;28;20038;-30
2023/12/15 17:01:55;;;;;;;7.43;4.65;;;;;;;18.02;58.11;98629.38;10402728;28;20022;-31
2023/12/15 17:06:56;;;;;;;7.00;4.10;;;;;;;18.02;58.32;98629.38;10402602;28;20034;-30
2023/12/15 17:11:58;;;;;;;6.27;4.67;;;;;;;18.03;58.24;98620.97;10401536;28;20034;-30
2023/12/15 17:16:59;;;;;;;11.52;6.20;;;;;;;18.02;58.29;98609.09;10397526;28;20076;-30
2023/12/15 17:21:59;;;;;;;7.40;5.60;;;;;;;18.01;58.35;98620.91;10407566;28;20475;-30
2023/12/15 17:27:00;;;;;;;9.30;6.07;;;;;;;18.02;58.26;98624.31;10401050;28;20454;-30
2023/12/15 17:32:00;;;;;;;7.23;5.50;;;;;;;17.98;58.38;98625.03;10406011;28;20037;-30
2023/12/15 17:37:01;;;;;;;7.30;4.88;;;;;;;17.96;58.17;98630.06;10404912;28;20327;-30
2023/12/15 17:42:01;;;;;;;7.77;4.83;;;;;;;18.05;58.24;98639.59;10400303;28;20033;-30
2023/12/15 17:47:03;;;;;;;6.47;4.77;;;;;;;18.07;57.46;98643.06;10407188;28;20033;-31
2023/12/15 17:52:03;;;;;;;8.75;5.40;;;;;;;18.11;57.54;98655.00;10402106;28;20299;-32
2023/12/15 17:57:04;;;;;;;7.82;5.22;;;;;;;18.13;57.69;98666.06;10402627;28;20048;-30
2023/12/15 18:02:05;;;;;;;5.63;4.65;;;;;;;18.14;57.36;98670.31;10403053;28;20038;-30
2023/12/15 18:07:05;;;;;;;5.65;4.55;;;;;;;18.15;57.07;98672.91;10401098;28;20480;-30
2023/12/15 18:12:06;;;;;;;8.87;5.43;;;;;;;18.10;57.12;98678.66;10398089;28;20090;-31
2023/12/15 18:17:07;;;;;;;13.57;6.32;;;;;;;18.10;56.80;98683.72;10385549;28;20037;-31
2023/12/15 18:22:09;;;;;;;5.90;4.60;;;;;;;18.12;56.94;98679.56;10379237;28;20527;-30
2023/12/15 18:27:10;;;;;;;5.53;4.13;;;;;;;18.14;56.68;98672.84;10396640;28;20040;-31
2023/12/15 18:32:10;;;;;;;5.95;4.13;;;;;;;18.12;56.21;98671.94;10404779;28;20033;-31
2023/12/15 18:37:11;;;;;;;9.68;5.57;;;;;;;18.14;56.64;98694.00;10401531;28;20521;-30
2023/12/15 18:42:12;;;;;;;9.25;4.80;;;;;;;18.17;56.32;98683.94;10396064;28;20037;-30
2023/12/15 18:47:12;;;;;;;9.82;5.35;;;;;;;18.14;56.50;98691.47;10399886;28;20591;-30
2023/12/15 18:52:18;;;;;;;15.73;8.87;;;;;;;18.20;57.04;98721.22;10393274;28;20503;-30
2023/12/15 18:57:18;;;;;;;14.43;8.40;;;;;;;18.18;56.03;98749.06;10383383;28;20029;-30
2023/12/15 19:02:19;;;;;;;16.53;10.60;;;;;;;18.15;57.08;98733.75;10375590;28;20059;-30
2023/12/15 19:07:21;;;;;;;16.90;9.87;;;;;;;18.14;57.05;98756.50;10383187;28;20025;-30
2023/12/15 19:12:22;;;;;;;17.13;9.50;;;;;;;18.30;57.11;98748.63;10384211;28;20042;-30
2023/12/15 19:17:23;;;;;;;18.27;10.20;;;;;;;18.36;56.90;98743.78;10392225;28;20740;-30
2023/12/15 19:22:23;;;;;;;22.83;11.13;;;;;;;18.24;57.30;98748.44;10396536;28;20041;-30
2023/12/15 19:27:24;;;;;;;25.80;12.50;;;;;;;18.20;57.67;98728.84;10388500;28;20071;-30
2023/12/15 19:32:25;;;;;;;25.75;12.52;;;;;;;18.14;58.21;98724.44;10393679;28;20050;-30
2023/12/15 19:37:25;;;;;;;24.57;12.83;;;;;;;18.10;58.41;98720.09;10389229;28;20462;-30
2023/12/15 19:42:25;;;;;;;21.07;12.30;;;;;;;18.10;58.51;98714.13;10378010;28;20322;-30
2023/12/15 19:47:26;;;;;;;20.87;11.90;;;;;;;18.04;58.31;98703.78;10395262;28;20091;-30
2023/12/15 19:52:28;;;;;;;19.37;11.60;;;;;;;18.06;58.69;98704.69;10387094;28;20029;-30
2023/12/15 19:57:28;;;;;;;19.65;11.93;;;;;;;18.04;58.93;98712.28;10393981;28;20302;-30
2023/12/15 20:02:28;;;;;;;20.20;10.47;;;;;;;17.99;59.50;98726.44;10386623;28;20041;-30
2023/12/15 20:07:29;;;;;;;20.00;8.80;;;;;;;18.09;57.50;98730.16;10406390;28;20040;-30
2023/12/15 20:12:31;;;;;;;18.90;9.07;;;;;;;18.16;56.81;98739.69;10387980;28;20660;-30
2023/12/15 20:17:31;;;;;;;13.55;8.50;;;;;;;18.13;56.55;98748.06;10402089;28;20037;-30
2023/12/15 20:22:33;;;;;;;17.10;7.93;;;;;;;18.08;56.16;98746.19;10396741;28;20033;-30
2023/12/15 20:27:37;;;;;;;11.05;6.97;;;;;;;17.83;57.54;98753.75;10393300;28;20520;-30
2023/12/15 20:32:37;;;;;;;8.75;4.10;;;;;;;17.73;53.75;98754.25;10402769;28;20040;-30
2023/12/15 20:37:38;;;;;;;3.70;2.20;;;;;;;17.27;49.52;98758.44;10411175;28;20384;-30
2023/12/15 20:42:38;;;;;;;3.90;2.20;;;;;;;17.12;48.76;98747.72;10401355;28;20026;-30
2023/12/15 20:47:38;;;;;;;6.87;3.57;;;;;;;17.52;53.35;98741.69;10402164;28;20310;-30
2023/12/15 20:52:39;;;;;;;7.00;3.97;;;;;;;17.62;54.04;98758.94;10409120;28;20091;-30
2023/12/15 20:57:40;;;;;;;6.37;3.60;;;;;;;17.73;53.94;98737.38;10379851;28;20039;-30
2023/12/15 21:02:41;;;;;;;5.07;3.15;;;;;;;17.67;53.45;98731.22;10388845;28;20083;-30
2023/12/15 21:07:41;;;;;;;11.48;4.80;;;;;;;17.65;53.24;98738.78;10399542;28;20037;-30
2023/12/15 21:12:42;;;;;;;7.67;2.97;;;;;;;17.71;54.18;98744.06;10395535;28;20037;-30
2023/12/15 21:17:42;;;;;;;6.60;2.72;;;;;;;17.77;53.33;98748.47;10399727;28;20427;-30
2023/12/15 21:22:43;;;;;;;6.33;3.80;;;;;;;17.73;54.69;98759.31;10404198;28;20135;-31
2023/12/15 21:27:43;;;;;;;7.53;3.95;;;;;;;17.76;54.81;98779.69;10383260;28;20293;-30
2023/12/15 21:32:43;;;;;;;6.37;3.63;;;;;;;17.76;54.43;98792.38;10387122;28;20033;-31
2023/12/15 21:37:44;;;;;;;8.47;3.17;;;;;;;17.70;55.10;98777.81;10399648;28;20542;-30
2023/12/15 21:42:46;;;;;;;4.20;2.87;;;;;;;17.65;55.28;98751.44;10393273;28;20052;-29
2023/12/15 21:47:46;;;;;;;8.57;4.20;;;;;;;17.65;55.50;98778.47;10395187;28;20114;-29
2023/12/15 21:52:47;;;;;;;5.28;3.70;;;;;;;17.72;55.68;98787.97;10392371;28;20033;-31
2023/12/15 21:57:47;;;;;;;5.78;3.58;;;;;;;17.74;55.23;98787.22;10401073;28;20042;-30
2023/12/15 22:02:48;;;;;;;5.60;3.37;;;;;;;17.74;55.16;98788.91;10399882;28;20228;-29
2023/12/15 22:07:48;;;;;;;7.53;4.30;;;;;;;17.71;55.57;98787.13;10393144;28;20296;-31
2023/12/15 22:12:49;;;;;;;5.27;3.33;;;;;;;17.65;55.86;98788.59;10399977;28;20030;-30
2023/12/15 22:17:49;;;;;;;5.20;3.10;;;;;;;17.64;55.98;98791.91;10392806;28;20983;-30
2023/12/15 22:22:49;;;;;;;7.03;2.97;;;;;;;17.66;54.43;98797.91;10402163;28;20507;-29
2023/12/15 22:27:51;;;;;;;6.25;3.50;;;;;;;17.60;55.96;98821.34;10396944;28;20041;-30
2023/12/15 22:32:51;;;;;;;7.77;2.93;;;;;;;17.73;55.93;98833.66;10402721;28;20033;-30
2023/12/15 22:37:52;;;;;;;6.65;2.97;;;;;;;17.69;56.13;98816.63;10392155;28;20462;-30
2023/12/15 22:42:53;;;;;;;4.50;2.78;;;;;;;17.67;55.92;98802.16;10395945;28;20499;-30
2023/12/15 22:47:54;;;;;;;7.13;2.97;;;;;;;17.65;56.11;98808.84;10402959;28;20057;-30
2023/12/15 22:52:54;;;;;;;5.57;3.35;;;;;;;17.61;56.16;98828.16;10398244;28;20349;-30
2023/12/15 22:57:57;;;;;;;6.87;3.03;;;;;;;17.68;56.20;98834.28;10397253;28;20491;-30
2023/12/15 23:02:58;;;;;;;4.78;2.95;;;;;;;17.61;56.28;98834.88;10395030;28;20040;-30
2023/12/15 23:07:58;;;;;;;4.65;3.08;;;;;;;17.54;56.15;98835.44;10396049;28;20033;-30
2023/12/15 23:12:58;;;;;;;6.97;3.40;;;;;;;17.50;56.52;98833.63;10395817;28;20076;-30
2023/12/15 23:17:59;;;;;;;4.10;2.77;;;;;;;17.41;56.61;98788.53;10400079;28;20171;-30